Time;durP1;ratioP1;P1;durP2;ratioP2;P2;SDS_P1;SDS_P2;PMS_P1;PMS_P2;Temp;Humidity;BMP_temperature;BMP_pressure;BME280_temperature;BME280_humidity;BME280_pressure;Samples;Min_cycle;Max_cycle;Signal;HPM_P1;HPM_P2
2022/01/08 00:32:27;;;;;;;29.75;18.08;;;;;;;-0.86;100.00;100880.00;6481406;23;20024;-77
2022/01/08 00:42:18;;;;;;;29.58;19.65;;;;;;;-0.91;100.00;100900.28;6405965;23;20428;-80
2022/01/08 15:37:26;;;;;;;7.30;5.10;;;;;;;2.42;100.00;99816.63;6468537;23;20028;-77
2022/01/08 15:39:57;;;;;;;8.57;5.77;;;;;;;2.43;100.00;99800.34;6474865;23;20306;-78
2022/01/08 15:42:28;;;;;;;8.53;5.70;;;;;;;2.50;100.00;99793.50;6474813;23;20001;-77
2022/01/08 15:45:00;;;;;;;8.60;4.73;;;;;;;2.50;100.00;99781.50;6474795;23;20034;-78
2022/01/08 15:47:31;;;;;;;9.83;5.57;;;;;;;2.49;100.00;99777.19;6447607;23;20087;-76
2022/01/08 15:50:03;;;;;;;6.30;5.40;;;;;;;2.54;100.00;99762.66;6474016;23;20005;-78
2022/01/08 15:52:34;;;;;;;7.83;5.50;;;;;;;2.57;100.00;99753.22;6475786;23;20000;-78
2022/01/08 15:55:06;;;;;;;6.80;4.80;;;;;;;2.57;100.00;99751.50;6441154;23;20017;-76
2022/01/08 15:57:40;;;;;;;7.87;4.67;;;;;;;2.61;100.00;99750.66;6448831;23;20088;-79
2022/01/08 16:00:14;;;;;;;5.53;4.13;;;;;;;2.65;100.00;99736.94;6442836;23;20001;-76
2022/01/08 16:02:47;;;;;;;5.72;4.35;;;;;;;2.67;100.00;99722.38;6442318;23;20419;-78
2022/01/08 16:05:22;;;;;;;6.88;4.30;;;;;;;2.68;100.00;99711.22;6452696;23;20001;-78
2022/01/08 16:07:54;;;;;;;8.05;4.00;;;;;;;2.74;100.00;99712.94;6455137;23;20012;-78
2022/01/08 16:10:26;;;;;;;5.70;4.22;;;;;;;2.74;100.00;99705.22;6454668;23;20032;-78
2022/01/08 16:12:58;;;;;;;6.97;3.63;;;;;;;2.79;100.00;99695.78;6457448;23;20065;-79
2022/01/08 16:15:29;;;;;;;5.50;3.50;;;;;;;2.80;100.00;99684.66;6455084;23;20001;-78
2022/01/08 19:26:33;;;;;;;2.67;2.00;;;;;;;4.11;100.00;99070.69;6347559;22;20039;-80
2022/01/08 20:18:16;;;;;;;2.60;1.90;;;;;;;4.05;100.00;98902.31;6318238;23;20026;31
2022/01/08 20:25:08;;;;;;;4.45;2.45;;;;;;;4.10;100.00;98877.31;6358682;23;20021;-80
2022/01/08 20:39:58;;;;;;;2.50;1.90;;;;;;;4.04;100.00;98836.16;6419965;23;20024;-81
2022/01/08 20:42:49;;;;;;;3.83;2.47;;;;;;;4.01;100.00;98830.19;6448047;23;20017;-81
2022/01/08 20:53:02;;;;;;;3.67;2.80;;;;;;;4.12;100.00;98804.22;6478169;23;20082;-80
2022/01/08 21:03:48;;;;;;;3.97;2.38;;;;;;;4.13;100.00;98758.63;6322111;23;20017;-78
2022/01/08 21:09:53;;;;;;;3.80;2.42;;;;;;;4.15;100.00;98747.44;6321598;23;20120;-79
2022/01/08 21:12:24;;;;;;;4.35;2.35;;;;;;;4.15;100.00;98746.56;6322141;23;20011;-79
2022/01/08 21:14:56;;;;;;;5.17;2.13;;;;;;;4.23;100.00;98759.31;6318090;23;20018;-80
2022/01/08 21:17:27;;;;;;;3.53;2.37;;;;;;;4.19;100.00;98741.31;6317722;23;20077;-78
2022/01/08 21:20:03;;;;;;;3.27;2.20;;;;;;;4.24;100.00;98748.97;6317921;23;20007;-80
2022/01/08 21:22:35;;;;;;;3.88;1.90;;;;;;;4.27;100.00;98743.75;6317923;23;20090;-79
2022/01/08 21:25:07;;;;;;;3.73;2.57;;;;;;;4.25;100.00;98730.03;6317815;23;20500;-79
2022/01/08 21:27:41;;;;;;;6.28;2.47;;;;;;;4.23;100.00;98726.63;6318021;23;20072;-81
2022/01/08 21:30:16;;;;;;;5.07;2.60;;;;;;;4.25;100.00;98732.63;6405640;23;20005;-79
2022/01/08 21:33:03;;;;;;;3.50;2.17;;;;;;;4.27;100.00;98724.84;6475086;23;20021;-81
2022/01/08 21:35:38;;;;;;;4.10;2.13;;;;;;;4.23;100.00;98705.97;6475313;23;20035;-81
2022/01/08 21:38:09;;;;;;;5.28;2.63;;;;;;;4.27;100.00;98707.63;6475145;23;20008;-82
2022/01/08 21:40:51;;;;;;;7.60;2.70;;;;;;;4.28;100.00;98704.19;6475237;23;20074;-83
2022/01/08 21:43:25;;;;;;;5.43;2.88;;;;;;;4.27;100.00;98696.47;6475316;23;20001;-79
2022/01/08 21:45:57;;;;;;;4.18;3.00;;;;;;;4.27;100.00;98694.75;6474195;23;20007;-81
2022/01/08 21:48:32;;;;;;;4.55;2.60;;;;;;;4.30;100.00;98691.22;6474435;23;20008;-81
2022/01/08 21:51:07;;;;;;;3.67;2.60;;;;;;;4.30;100.00;98679.19;6476077;23;20003;-80
2022/01/08 21:53:39;;;;;;;4.45;2.55;;;;;;;4.31;100.00;98683.47;6448182;23;20056;-79
2022/01/08 21:56:32;;;;;;;4.70;2.90;;;;;;;4.28;100.00;98670.66;6475092;23;20008;-80
2022/01/08 21:59:16;;;;;;;4.00;2.40;;;;;;;4.31;100.00;98673.16;6474265;23;20008;-81
2022/01/08 22:02:22;;;;;;;4.93;2.40;;;;;;;4.30;100.00;98666.31;6476601;23;20422;-83
2022/01/08 22:04:54;;;;;;;6.22;2.58;;;;;;;4.23;100.00;98648.41;6476672;23;20004;-79
2022/01/08 22:11:09;;;;;;;6.25;2.95;;;;;;;4.22;100.00;98633.81;6479932;23;20028;-82
2022/01/08 22:13:46;;;;;;;3.85;2.65;;;;;;;4.29;100.00;98641.38;6453570;23;20000;-81
2022/01/08 22:16:27;;;;;;;5.88;2.70;;;;;;;4.29;100.00;98637.97;6452540;23;20009;-81
2022/01/08 22:18:59;;;;;;;4.68;2.53;;;;;;;4.29;100.00;98625.91;6478959;23;20302;-78
2022/01/08 22:21:30;;;;;;;4.13;2.57;;;;;;;4.32;100.00;98620.69;6478900;23;20000;-81
2022/01/08 22:24:04;;;;;;;4.70;2.90;;;;;;;4.29;100.00;98620.75;6478493;23;20000;-80
2022/01/08 22:27:10;;;;;;;7.63;3.53;;;;;;;4.30;100.00;98611.28;6450431;23;20004;-80
2022/01/08 22:30:24;;;;;;;5.40;2.75;;;;;;;4.31;100.00;98613.81;6323031;23;20368;-80
2022/01/08 22:32:56;;;;;;;3.88;2.65;;;;;;;4.28;100.00;98607.88;6319966;23;20003;-79
2022/01/08 22:35:27;;;;;;;3.80;2.40;;;;;;;4.33;100.00;98609.50;6320974;23;20523;-79
2022/01/08 22:37:58;;;;;;;4.77;2.83;;;;;;;4.35;100.00;98597.41;6323503;23;20373;-79
2022/01/08 22:40:30;;;;;;;5.00;3.00;;;;;;;4.36;100.00;98599.13;6321079;23;20023;-78
2022/01/08 22:43:02;;;;;;;8.63;2.97;;;;;;;4.40;100.00;98601.63;6321176;23;20006;-80
2022/01/08 22:45:37;;;;;;;7.13;3.15;;;;;;;4.37;100.00;98587.06;6322946;23;20014;-80
2022/01/08 22:48:11;;;;;;;4.60;3.10;;;;;;;4.38;100.00;98576.69;6320578;23;20021;-80
2022/01/08 22:50:43;;;;;;;4.97;2.88;;;;;;;4.43;100.00;98583.47;6321392;23;20011;-79
2022/01/08 22:53:14;;;;;;;4.73;2.70;;;;;;;4.44;100.00;98577.44;6296682;23;20022;-78
2022/01/08 22:55:46;;;;;;;5.70;2.80;;;;;;;4.48;100.00;98581.66;6321887;23;20071;-80
2022/01/08 22:58:19;;;;;;;6.80;3.13;;;;;;;4.46;100.00;98573.94;6321555;23;20086;-80
2022/01/08 23:00:54;;;;;;;4.60;2.90;;;;;;;4.54;100.00;98607.28;6321177;23;20065;-78
2022/01/08 23:03:27;;;;;;;4.53;3.03;;;;;;;4.53;100.00;98595.28;6320745;23;20014;-78
2022/01/08 23:05:59;;;;;;;;;;;;;;;4.51;100.00;98594.50;6359907;23;20311;-79
2022/01/08 23:08:33;;;;;;;9.45;4.00;;;;;;;4.55;100.00;98606.41;6474236;23;19908;-79
2022/01/08 23:11:04;;;;;;;9.55;7.10;;;;;;;4.54;100.00;98592.69;6473416;23;20035;-79
2022/01/08 23:13:38;;;;;;;7.83;7.03;;;;;;;4.59;100.00;98586.53;6474322;23;20004;-78
2022/01/08 23:16:09;;;;;;;8.80;7.20;;;;;;;4.61;100.00;98571.91;6473482;23;20004;-77
2022/01/08 23:18:40;;;;;;;7.37;6.67;;;;;;;4.62;100.00;98564.13;6447580;23;20087;-78
2022/01/08 23:21:12;;;;;;;7.87;6.40;;;;;;;4.62;100.00;98558.97;6473939;23;19997;-78
2022/01/08 23:23:45;;;;;;;9.17;6.40;;;;;;;4.63;100.00;98564.97;6474142;23;20004;-78
2022/01/08 23:26:16;;;;;;;8.93;5.95;;;;;;;4.61;100.00;98559.84;6474710;23;20000;-78
2022/01/08 23:28:47;;;;;;;6.87;5.80;;;;;;;4.65;100.00;98568.34;6474402;23;20004;-78
2022/01/08 23:31:19;;;;;;;6.97;6.07;;;;;;;4.63;100.00;98559.78;6474779;23;19996;-77
2022/01/08 23:33:50;;;;;;;6.97;6.27;;;;;;;4.64;100.00;98562.34;6474345;23;20015;-77
2022/01/08 23:36:22;;;;;;;8.20;6.43;;;;;;;4.60;100.00;98546.97;6473198;23;20008;-77
2022/01/08 23:38:53;;;;;;;8.63;5.80;;;;;;;4.63;100.00;98560.63;6473248;23;20437;-77
2022/01/08 23:41:24;;;;;;;6.67;5.03;;;;;;;4.61;100.00;98562.41;6473649;23;20031;-78
2022/01/08 23:43:56;;;;;;;8.10;5.73;;;;;;;4.62;100.00;98566.69;6474074;23;20084;-77
2022/01/08 23:46:27;;;;;;;5.70;4.70;;;;;;;4.61;100.00;98577.06;6474203;23;20016;-77
2022/01/08 23:49:03;;;;;;;8.90;4.83;;;;;;;4.59;100.00;98584.84;6474589;23;20000;-78
2022/01/08 23:51:35;;;;;;;8.80;5.18;;;;;;;4.59;100.00;98577.09;6475054;23;20008;-78
2022/01/08 23:54:07;;;;;;;8.93;4.73;;;;;;;4.57;100.00;98586.56;6477961;23;20005;-77
2022/01/08 23:56:41;;;;;;;9.68;6.80;;;;;;;4.64;100.00;98597.63;6450199;23;20070;-77
2022/01/08 23:59:13;;;;;;;8.43;6.90;;;;;;;4.67;100.00;98607.84;6474585;23;20080;-78
